Time;durP1;ratioP1;P1;durP2;ratioP2;P2;SDS_P1;SDS_P2;PMS_P1;PMS_P2;Temp;Humidity;BMP_temperature;BMP_pressure;BME280_temperature;BME280_humidity;BME280_pressure;Samples;Min_cycle;Max_cycle;Signal;HPM_P1;HPM_P2
2022/01/12 00:00:48;;;;;;;9.50;5.10;;;18.80;55.10;;;;;;5109809;28;20227;-84
2022/01/12 00:03:16;;;;;;;7.30;4.72;;;18.80;54.90;;;;;;5096716;28;20203;-83
2022/01/12 00:05:43;;;;;;;7.30;5.13;;;18.70;55.10;;;;;;5113723;28;20525;-84
2022/01/12 00:08:10;;;;;;;9.38;5.40;;;18.70;55.10;;;;;;5096643;28;20156;-84
2022/01/12 00:10:38;;;;;;;6.60;5.03;;;18.80;55.00;;;;;;5096764;28;20152;-85
2022/01/12 00:13:03;;;;;;;7.15;5.00;;;18.80;55.10;;;;;;5096909;28;20571;-84
2022/01/12 00:15:29;;;;;;;7.20;5.30;;;18.80;55.10;;;;;;5096421;28;20255;-84
2022/01/12 00:17:55;;;;;;;8.02;5.28;;;18.70;55.30;;;;;;5096627;28;20187;-83
2022/01/12 00:20:21;;;;;;;9.85;4.93;;;18.70;55.10;;;;;;5096215;28;20160;-84
2022/01/12 00:22:51;;;;;;;9.18;4.90;;;18.70;55.10;;;;;;5096702;28;20189;-84
2022/01/12 00:33:20;;;;;;;7.10;4.90;;;18.70;55.00;;;;;;5098418;28;20148;-84
2022/01/12 00:35:48;;;;;;;8.68;4.82;;;18.70;55.30;;;;;;5096252;28;20214;-85
2022/01/12 00:38:15;;;;;;;6.97;5.03;;;18.70;55.20;;;;;;5096192;28;20534;-83
2022/01/12 00:40:42;;;;;;;8.43;5.45;;;18.70;55.30;;;;;;5112857;28;20175;-84
2022/01/12 00:43:07;;;;;;;9.20;4.85;;;18.70;55.40;;;;;;5095989;28;20188;-83
2022/01/12 00:45:34;;;;;;;9.15;4.95;;;18.60;55.10;;;;;;5096924;28;20235;-83
2022/01/12 00:47:59;;;;;;;7.38;4.97;;;18.60;55.30;;;;;;5099300;28;20164;-83
2022/01/12 00:50:25;;;;;;;8.13;5.05;;;18.60;55.30;;;;;;5099201;28;20159;-83
2022/01/12 00:52:53;;;;;;;7.25;5.07;;;18.70;55.10;;;;;;5099698;28;20161;-84
2022/01/12 00:55:18;;;;;;;10.23;5.22;;;18.60;55.20;;;;;;5099734;28;20485;-83
2022/01/12 00:57:45;;;;;;;9.32;5.28;;;18.60;55.20;;;;;;5116283;28;20622;-83
2022/01/12 01:00:11;;;;;;;7.90;5.05;;;18.60;55.20;;;;;;5087399;28;20315;-83
2022/01/12 01:02:38;;;;;;;7.15;5.18;;;18.60;55.10;;;;;;5078932;28;20228;-83
2022/01/12 01:05:04;;;;;;;8.77;4.85;;;18.60;55.10;;;;;;5079264;28;20199;-83
2022/01/12 01:07:30;;;;;;;7.68;5.35;;;18.60;55.30;;;;;;5062670;28;20157;-84
2022/01/12 01:10:04;;;;;;;8.18;4.97;;;18.60;55.20;;;;;;5061717;28;20171;-82
2022/01/12 01:12:30;;;;;;;7.05;5.35;;;18.60;55.30;;;;;;5097286;28;20557;-85
2022/01/12 01:15:17;;;;;;;7.13;5.15;;;18.60;55.10;;;;;;5078511;28;20602;-83
2022/01/12 01:25:42;;;;;;;7.85;5.20;;;18.50;55.20;;;;;;5080735;28;20148;-84
2022/01/12 01:28:09;;;;;;;8.65;5.20;;;18.60;55.20;;;;;;5061493;28;20161;-84
2022/01/12 01:30:36;;;;;;;7.28;5.13;;;18.50;55.20;;;;;;5061292;28;20161;-84
2022/01/12 01:33:07;;;;;;;7.88;5.22;;;18.60;55.10;;;;;;5061559;28;20210;-85
2022/01/12 01:35:33;;;;;;;7.43;5.00;;;18.50;55.10;;;;;;5062097;28;20259;-86
2022/01/12 01:38:00;;;;;;;8.27;5.35;;;18.50;55.10;;;;;;5078579;28;20148;-84
2022/01/12 01:40:26;;;;;;;6.00;4.80;;;18.50;55.10;;;;;;5078189;28;20153;-83
2022/01/12 01:43:08;;;;;;;7.10;4.90;;;18.50;55.10;;;;;;5061398;28;20172;-84
2022/01/12 01:53:40;;;;;;;6.93;5.28;;;18.50;55.10;;;;;;5079461;28;20231;-85
2022/01/12 01:56:06;;;;;;;7.90;5.30;;;18.50;55.10;;;;;;5077300;28;20589;-83
2022/01/12 01:58:32;;;;;;;6.82;4.80;;;18.60;55.40;;;;;;5077012;28;20164;-83
2022/01/12 02:00:57;;;;;;;10.50;5.18;;;18.50;55.10;;;;;;5077289;28;20216;-84
2022/01/12 02:03:26;;;;;;;7.65;5.28;;;18.50;55.20;;;;;;5077478;28;20529;-84
2022/01/12 02:05:52;;;;;;;6.68;4.90;;;18.50;55.10;;;;;;5061806;28;20167;-85
2022/01/12 02:08:20;;;;;;;6.80;5.10;;;18.50;55.20;;;;;;5077543;28;20256;-85
2022/01/12 02:10:53;;;;;;;7.80;5.22;;;18.50;55.30;;;;;;5077460;28;20240;-85
2022/01/12 02:13:19;;;;;;;8.98;5.30;;;18.50;55.20;;;;;;5077691;28;20153;-83
2022/01/12 02:15:46;;;;;;;8.35;5.25;;;18.50;55.20;;;;;;5061168;28;20237;-83
2022/01/12 02:18:20;;;;;;;7.13;4.75;;;18.40;55.40;;;;;;5077557;28;20148;-83
2022/01/12 02:36:59;;;;;;;7.43;4.93;;;18.40;55.10;;;;;;5078480;28;20212;-84
2022/01/12 02:42:02;;;;;;;8.35;5.32;;;18.40;55.30;;;;;;5078797;28;20192;-83
2022/01/12 02:55:13;;;;;;;6.78;4.85;;;18.40;55.20;;;;;;5078544;28;20522;-85
2022/01/12 02:57:39;;;;;;;7.35;5.15;;;18.40;55.40;;;;;;5076468;28;20163;-84
2022/01/12 03:00:09;;;;;;;8.77;5.10;;;18.40;55.30;;;;;;5076266;28;20220;-85
2022/01/12 03:02:39;;;;;;;7.07;4.68;;;18.40;55.30;;;;;;5060543;28;20218;-84
2022/01/12 03:05:34;;;;;;;8.57;5.38;;;18.40;55.30;;;;;;5076809;28;20177;-85
2022/01/12 03:07:58;;;;;;;8.15;5.00;;;18.40;55.30;;;;;;5093970;28;20173;-84
2022/01/12 03:10:25;;;;;;;12.38;5.28;;;18.40;55.20;;;;;;5060032;28;20195;-85
2022/01/12 03:12:53;;;;;;;9.02;5.10;;;18.40;55.30;;;;;;5076322;28;20152;-83
2022/01/12 03:15:18;;;;;;;8.18;5.45;;;18.30;55.30;;;;;;5076595;28;20241;-83
2022/01/12 03:17:44;;;;;;;7.97;5.25;;;18.40;55.40;;;;;;5059408;28;20241;-84
2022/01/12 03:20:10;;;;;;;7.15;5.15;;;18.40;55.30;;;;;;5076152;28;20149;-83
2022/01/12 03:22:37;;;;;;;6.95;4.25;;;18.40;55.40;;;;;;5076075;28;20152;-85
2022/01/12 03:25:04;;;;;;;7.53;5.00;;;18.40;55.30;;;;;;5076435;28;20269;-83
2022/01/12 03:27:30;;;;;;;6.70;4.75;;;18.30;55.30;;;;;;5076473;28;20157;-84
2022/01/12 03:29:57;;;;;;;9.73;5.40;;;18.30;55.50;;;;;;5076126;28;20595;-84
2022/01/12 03:32:36;;;;;;;8.52;5.20;;;18.30;55.30;;;;;;5076337;28;20149;-84
2022/01/12 03:35:22;;;;;;;8.50;5.10;;;18.30;55.40;;;;;;5077956;28;20580;-85
2022/01/12 03:38:19;;;;;;;6.93;4.85;;;18.30;55.40;;;;;;5078821;28;20172;-84
2022/01/12 03:40:33;;;;;;;8.85;5.57;;;18.30;55.20;;;;;;5078689;28;20643;-84
2022/01/12 03:42:58;;;;;;;6.43;5.00;;;18.30;55.40;;;;;;5059639;28;20172;-83
2022/01/12 03:45:26;;;;;;;9.32;5.20;;;18.40;55.20;;;;;;5059231;28;20227;-84
2022/01/12 03:47:52;;;;;;;6.93;5.00;;;18.30;55.20;;;;;;5076276;28;20149;-83
2022/01/12 03:50:19;;;;;;;7.97;4.93;;;18.30;55.30;;;;;;5075965;28;20645;-83
2022/01/12 03:52:46;;;;;;;7.70;5.28;;;18.40;55.30;;;;;;5075879;28;20167;-84
2022/01/12 03:55:14;;;;;;;6.78;4.95;;;18.30;55.30;;;;;;5075693;28;20174;-84
2022/01/12 03:57:41;;;;;;;9.85;5.20;;;18.30;55.30;;;;;;5075855;28;20160;-83
2022/01/12 04:00:17;;;;;;;6.75;4.82;;;18.40;55.40;;;;;;5075899;28;20277;-82
2022/01/12 04:02:43;;;;;;;7.45;4.80;;;18.30;55.50;;;;;;5059197;28;20160;-85
2022/01/12 04:05:24;;;;;;;8.20;5.03;;;18.30;55.30;;;;;;5075991;28;20157;-85
2022/01/12 04:10:36;;;;;;;8.48;5.38;;;18.30;55.50;;;;;;5078775;28;20172;-85
2022/01/12 04:13:02;;;;;;;6.53;4.88;;;18.30;55.40;;;;;;5075816;28;20176;-83
2022/01/12 04:15:28;;;;;;;8.60;5.40;;;18.30;55.50;;;;;;5075820;28;20165;-86
2022/01/12 04:17:54;;;;;;;7.15;5.45;;;18.30;55.70;;;;;;5075643;28;20259;-84
2022/01/12 04:20:19;;;;;;;6.28;4.95;;;18.20;55.50;;;;;;5060225;28;20168;-84
2022/01/12 04:25:28;;;;;;;8.32;5.22;;;18.20;55.60;;;;;;5097580;28;20232;-85
2022/01/12 04:27:54;;;;;;;8.13;5.50;;;18.20;55.50;;;;;;5062907;28;20698;-84
2022/01/12 04:30:20;;;;;;;7.07;5.10;;;18.20;55.50;;;;;;5063285;28;20247;-84
2022/01/12 04:32:48;;;;;;;7.88;5.03;;;18.20;55.50;;;;;;5062516;28;20557;-84
2022/01/12 04:35:16;;;;;;;6.82;5.25;;;18.30;55.70;;;;;;5079519;28;20195;-85
2022/01/12 04:37:42;;;;;;;8.13;5.10;;;18.30;55.70;;;;;;5079722;28;20155;-83
2022/01/12 04:40:09;;;;;;;7.72;4.97;;;18.20;55.50;;;;;;5079333;28;20159;-84
2022/01/12 04:42:36;;;;;;;8.68;5.70;;;18.20;55.50;;;;;;5079280;28;20153;-85
2022/01/12 04:45:16;;;;;;;7.95;5.05;;;18.20;55.60;;;;;;5062552;28;20239;-83
2022/01/12 04:50:19;;;;;;;7.00;5.20;;;18.10;55.70;;;;;;5080877;28;20498;-84
2022/01/12 04:52:45;;;;;;;8.05;5.68;;;18.20;55.70;;;;;;5062248;28;20175;-84
2022/01/12 04:55:12;;;;;;;7.15;5.20;;;18.20;55.50;;;;;;5079082;28;20153;-83
2022/01/12 04:57:38;;;;;;;8.20;5.22;;;18.20;55.60;;;;;;5079125;28;20164;-82
2022/01/12 05:00:13;;;;;;;7.68;5.28;;;18.20;55.70;;;;;;5085553;28;20584;-83
2022/01/12 05:08:13;;;;;;;8.68;5.18;;;18.10;55.80;;;;;;5080868;28;20148;-84
2022/01/12 05:13:20;;;;;;;8.00;5.05;;;18.10;55.70;;;;;;5096548;28;20573;-84
2022/01/12 05:15:47;;;;;;;8.18;4.70;;;18.10;55.80;;;;;;5095062;28;20180;-82
2022/01/12 05:18:14;;;;;;;6.85;5.43;;;18.20;55.90;;;;;;5061891;28;20169;-84
2022/01/12 05:20:44;;;;;;;8.25;4.90;;;18.20;55.10;;;;;;5078132;28;20156;-83
2022/01/12 05:23:10;;;;;;;8.75;5.43;;;18.20;54.70;;;;;;5096539;28;20211;-82
2022/01/12 05:25:37;;;;;;;7.32;4.88;;;18.30;54.40;;;;;;5094869;28;20161;-84
2022/01/12 05:28:03;;;;;;;8.07;5.45;;;18.30;54.00;;;;;;5094517;28;20164;-84
2022/01/12 05:30:28;;;;;;;8.70;5.20;;;18.30;54.30;;;;;;5111226;28;20152;-83
2022/01/12 05:32:54;;;;;;;7.03;5.10;;;18.40;54.10;;;;;;5094576;28;20160;-83
2022/01/12 05:35:20;;;;;;;8.23;5.65;;;18.50;54.40;;;;;;5081200;28;20160;-84
2022/01/12 05:37:46;;;;;;;7.55;5.38;;;18.40;54.20;;;;;;5098065;28;20599;-84
2022/01/12 05:40:13;;;;;;;8.30;5.40;;;18.50;54.30;;;;;;5081005;28;20168;-85
2022/01/12 05:42:40;;;;;;;6.78;4.97;;;18.60;54.20;;;;;;5097977;28;20169;-83
2022/01/12 05:45:09;;;;;;;7.78;4.93;;;18.60;53.90;;;;;;5115024;28;20180;-83
2022/01/12 05:50:12;;;;;;;8.40;5.68;;;18.60;54.00;;;;;;5114654;28;20148;-83
2022/01/12 05:52:37;;;;;;;9.07;5.10;;;18.60;53.80;;;;;;5114626;28;20152;-82
2022/01/12 05:55:04;;;;;;;8.80;4.93;;;18.60;53.70;;;;;;5097473;28;20163;-83
2022/01/12 05:57:31;;;;;;;6.28;4.82;;;18.60;53.60;;;;;;5114739;28;20148;-85
2022/01/12 05:59:57;;;;;;;8.82;5.40;;;18.60;53.50;;;;;;5108304;28;20279;-83
2022/01/12 06:02:24;;;;;;;6.38;4.90;;;18.70;53.50;;;;;;5097126;28;20204;-83
2022/01/12 06:04:49;;;;;;;7.43;4.88;;;18.70;53.40;;;;;;5096818;28;20207;-83
2022/01/12 06:07:15;;;;;;;8.13;5.22;;;18.60;53.40;;;;;;5096974;28;20156;-84
2022/01/12 06:09:41;;;;;;;7.90;5.05;;;18.70;53.60;;;;;;5096667;28;20252;-84
2022/01/12 06:12:07;;;;;;;7.15;4.70;;;18.70;53.30;;;;;;5079603;28;20190;-83
2022/01/12 06:14:33;;;;;;;7.85;5.55;;;18.70;53.30;;;;;;5096477;28;20163;-84
2022/01/12 06:16:58;;;;;;;7.80;5.55;;;18.80;53.20;;;;;;5096165;28;20156;-84
2022/01/12 06:19:24;;;;;;;7.32;5.03;;;18.70;53.20;;;;;;5096157;28;20157;-83
2022/01/12 06:21:50;;;;;;;7.07;4.53;;;18.80;53.30;;;;;;5079326;28;20171;-84
2022/01/12 06:24:15;;;;;;;8.20;5.30;;;18.80;53.10;;;;;;5096087;28;20188;-83
2022/01/12 06:26:43;;;;;;;8.13;4.97;;;18.80;53.30;;;;;;5096869;28;20157;-83
2022/01/12 06:29:38;;;;;;;7.63;5.32;;;18.80;53.20;;;;;;5096728;28;20244;-83
2022/01/12 06:31:55;;;;;;;6.68;4.65;;;18.80;53.20;;;;;;5099238;28;20160;-83
2022/01/12 06:34:21;;;;;;;7.38;5.10;;;18.80;53.00;;;;;;5096777;28;20148;-83
2022/01/12 06:36:47;;;;;;;6.50;5.05;;;18.80;53.00;;;;;;5096500;28;20165;-84
2022/01/12 06:39:17;;;;;;;7.47;5.22;;;18.80;53.00;;;;;;5079621;28;20164;-83
2022/01/12 06:41:43;;;;;;;6.22;4.72;;;18.80;53.10;;;;;;5096218;28;20524;-83
2022/01/12 06:44:08;;;;;;;7.05;4.82;;;18.80;53.00;;;;;;5095861;28;20190;-83
2022/01/12 06:46:35;;;;;;;8.20;5.70;;;18.80;53.00;;;;;;5079742;28;20168;-83
2022/01/12 06:49:01;;;;;;;6.57;4.57;;;18.80;53.00;;;;;;5096223;28;20172;-83
2022/01/12 06:51:27;;;;;;;7.05;5.30;;;18.80;52.80;;;;;;5096129;28;20156;-83
2022/01/12 06:53:54;;;;;;;7.05;5.05;;;18.90;52.80;;;;;;5096235;28;20159;-83
2022/01/12 06:56:20;;;;;;;6.38;4.75;;;18.90;52.80;;;;;;5095924;28;20163;-83
2022/01/12 06:58:45;;;;;;;7.45;5.05;;;18.90;52.80;;;;;;5095956;28;20209;-84
2022/01/12 07:01:11;;;;;;;6.97;4.80;;;18.90;52.80;;;;;;5097413;27;20223;-83
2022/01/12 07:03:37;;;;;;;5.85;4.65;;;18.90;52.60;;;;;;5132587;27;20586;-83
2022/01/12 07:06:03;;;;;;;6.70;4.93;;;18.90;52.70;;;;;;5134371;27;20234;-83
2022/01/12 07:08:28;;;;;;;7.50;5.10;;;18.90;52.70;;;;;;5133378;27;20163;-84
2022/01/12 07:10:54;;;;;;;6.78;5.05;;;18.90;52.60;;;;;;5099633;27;20597;-84
2022/01/12 07:13:20;;;;;;;7.93;5.20;;;18.80;52.60;;;;;;5116057;27;20155;-84
2022/01/12 07:15:45;;;;;;;7.57;4.53;;;18.90;52.60;;;;;;5117013;27;20212;-83
2022/01/12 07:18:11;;;;;;;6.05;4.95;;;19.00;52.50;;;;;;5118480;27;20155;-83
2022/01/12 07:20:37;;;;;;;5.45;4.63;;;19.00;52.50;;;;;;5118508;27;20212;-85
2022/01/12 07:23:13;;;;;;;6.28;4.65;;;19.00;52.40;;;;;;5106390;28;20172;-88
2022/01/12 07:25:39;;;;;;;6.50;4.82;;;19.00;52.10;;;;;;5099972;28;20232;-84
2022/01/12 07:28:05;;;;;;;7.25;4.80;;;19.00;52.30;;;;;;5080748;28;20210;-86
2022/01/12 07:30:32;;;;;;;7.75;5.00;;;19.00;52.40;;;;;;5101591;28;20159;-85
2022/01/12 07:32:58;;;;;;;6.53;4.28;;;19.00;52.50;;;;;;5086984;28;20164;-86
2022/01/12 07:35:25;;;;;;;6.40;4.78;;;18.90;52.20;;;;;;5100747;28;20213;-85
2022/01/12 07:37:53;;;;;;;5.85;4.22;;;19.00;52.20;;;;;;5089443;28;20152;-85
2022/01/12 07:40:20;;;;;;;7.03;4.60;;;19.00;52.30;;;;;;5103443;28;20259;-85
2022/01/12 07:42:51;;;;;;;8.18;4.95;;;19.00;52.10;;;;;;5073915;28;20170;-83
2022/01/12 07:45:19;;;;;;;6.45;4.68;;;19.00;51.70;;;;;;5091257;28;20198;-84
2022/01/12 07:47:44;;;;;;;6.65;4.53;;;19.10;51.90;;;;;;5066760;28;20156;-85
2022/01/12 07:50:13;;;;;;;6.72;4.80;;;19.00;51.70;;;;;;5084675;28;20148;-85
2022/01/12 07:52:39;;;;;;;6.65;4.57;;;19.00;51.60;;;;;;5088978;28;20492;-85
2022/01/12 07:55:09;;;;;;;6.18;4.90;;;19.10;51.70;;;;;;5103541;28;20211;-84
2022/01/12 07:58:03;;;;;;;5.95;4.38;;;19.10;51.70;;;;;;5093767;28;20289;-85
2022/01/12 08:00:33;;;;;;;6.60;4.70;;;19.10;51.60;;;;;;5096839;28;20685;-84
2022/01/12 08:02:59;;;;;;;6.38;4.38;;;19.10;51.70;;;;;;5109610;28;20167;-84
2022/01/12 08:05:25;;;;;;;9.93;4.40;;;19.20;51.60;;;;;;5101899;28;20160;-85
2022/01/12 08:07:54;;;;;;;6.60;4.60;;;19.20;51.70;;;;;;5100984;28;20167;-85
2022/01/12 08:10:19;;;;;;;5.68;4.28;;;19.20;51.90;;;;;;5117396;27;20888;-84
2022/01/12 08:12:45;;;;;;;6.20;4.47;;;19.20;52.00;;;;;;5121679;28;20184;-83
2022/01/12 08:15:13;;;;;;;6.40;4.20;;;19.20;52.10;;;;;;5101823;28;20156;-84
2022/01/12 08:17:39;;;;;;;6.97;4.80;;;19.20;52.20;;;;;;5100367;28;20171;-83
2022/01/12 08:20:05;;;;;;;6.47;4.45;;;19.20;52.00;;;;;;5099954;28;20152;-83
2022/01/12 08:22:31;;;;;;;6.50;4.60;;;19.20;52.20;;;;;;5101068;28;20184;-83
2022/01/12 08:24:57;;;;;;;5.40;4.15;;;19.20;52.00;;;;;;5118302;28;20539;-83
2022/01/12 08:27:22;;;;;;;6.88;4.20;;;19.30;51.70;;;;;;5117199;28;20167;-85
2022/01/12 08:29:50;;;;;;;6.35;4.47;;;19.30;51.80;;;;;;5100919;28;20152;-84
2022/01/12 08:32:16;;;;;;;5.35;4.13;;;19.30;51.60;;;;;;5101891;28;20198;-83
2022/01/12 08:34:42;;;;;;;5.68;4.35;;;19.30;51.40;;;;;;5101803;28;20148;-83
2022/01/12 08:37:07;;;;;;;6.05;4.32;;;19.30;51.20;;;;;;5119913;28;20184;-83
2022/01/12 08:39:33;;;;;;;6.75;5.00;;;19.30;51.00;;;;;;5116949;28;20191;-84
2022/01/12 08:41:59;;;;;;;5.38;4.35;;;19.30;51.00;;;;;;5117361;28;20169;-84
2022/01/12 08:44:26;;;;;;;6.22;4.28;;;19.30;51.10;;;;;;5119022;28;20233;-83
2022/01/12 08:46:53;;;;;;;7.18;4.57;;;19.30;51.50;;;;;;5101182;28;20260;-83
2022/01/12 08:49:19;;;;;;;6.57;4.35;;;19.30;51.20;;;;;;5100343;28;20149;-84
2022/01/12 08:51:44;;;;;;;8.50;4.28;;;19.30;51.40;;;;;;5083310;28;20179;-84
2022/01/12 08:54:10;;;;;;;9.45;4.88;;;19.20;51.70;;;;;;5100677;28;20498;-84
2022/01/12 08:56:37;;;;;;;12.57;4.13;;;19.20;51.80;;;;;;5099824;28;20152;-83
2022/01/12 08:59:03;;;;;;;11.80;4.60;;;19.20;52.30;;;;;;5085189;27;20243;-84
2022/01/12 09:01:29;;;;;;;12.85;4.68;;;19.20;52.10;;;;;;5121300;27;20160;-85
2022/01/12 09:03:54;;;;;;;13.73;5.03;;;19.20;52.00;;;;;;5137315;27;20202;-83
2022/01/12 09:06:20;;;;;;;9.35;4.90;;;19.20;52.60;;;;;;5137573;27;20167;-83
2022/01/12 09:08:46;;;;;;;13.63;5.05;;;19.30;52.50;;;;;;5119846;27;20163;-84
2022/01/12 09:11:12;;;;;;;11.18;4.78;;;19.20;52.20;;;;;;5120062;27;20151;-84
2022/01/12 09:13:38;;;;;;;11.13;4.65;;;19.20;52.10;;;;;;5136694;27;20180;-83
2022/01/12 09:16:06;;;;;;;10.98;4.80;;;19.30;52.50;;;;;;5135872;27;20573;-83
2022/01/12 09:18:34;;;;;;;14.60;4.93;;;19.30;52.50;;;;;;5129421;27;20277;-83
2022/01/12 09:21:00;;;;;;;10.07;4.60;;;19.30;52.30;;;;;;5122563;27;20174;-84
2022/01/12 09:23:26;;;;;;;12.35;4.65;;;19.20;52.50;;;;;;5122906;27;20239;-84
2022/01/12 09:25:51;;;;;;;6.85;4.45;;;19.30;52.80;;;;;;5140766;27;20215;-85
2022/01/12 09:28:17;;;;;;;17.40;4.93;;;19.30;52.30;;;;;;5106790;27;20206;-83
2022/01/12 09:30:43;;;;;;;9.27;4.82;;;19.30;52.00;;;;;;5103519;27;20175;-83
2022/01/12 09:33:09;;;;;;;10.30;4.57;;;19.30;52.10;;;;;;5119996;27;20602;-83
2022/01/12 09:35:34;;;;;;;6.38;4.40;;;19.30;51.80;;;;;;5103409;27;20163;-84
2022/01/12 09:38:00;;;;;;;12.10;5.03;;;19.30;51.70;;;;;;5103979;27;20159;-84
2022/01/12 09:40:26;;;;;;;8.90;3.88;;;19.40;52.10;;;;;;5105180;27;20297;-84
2022/01/12 09:42:53;;;;;;;8.75;4.78;;;19.40;52.00;;;;;;5139809;27;20197;-83
2022/01/12 09:45:19;;;;;;;8.48;4.75;;;19.30;52.20;;;;;;5103257;27;21613;-85
2022/01/12 09:47:47;;;;;;;7.70;3.92;;;19.40;51.70;;;;;;5101915;27;20155;-83
2022/01/12 09:50:13;;;;;;;7.20;4.50;;;19.30;51.90;;;;;;5122765;27;20198;-83
2022/01/12 09:52:39;;;;;;;9.77;4.80;;;19.40;52.40;;;;;;5125157;27;20585;-83
2022/01/12 09:55:05;;;;;;;9.00;4.60;;;19.30;51.90;;;;;;5135007;27;20661;-84
2022/01/12 09:57:31;;;;;;;7.88;4.53;;;19.40;52.50;;;;;;5135469;27;20592;-83
2022/01/12 09:59:56;;;;;;;9.98;4.45;;;19.30;51.90;;;;;;5123133;27;20220;-82
2022/01/12 10:02:22;;;;;;;7.97;4.78;;;19.40;51.60;;;;;;5079131;28;20172;-83
2022/01/12 10:04:58;;;;;;;11.68;5.10;;;19.40;52.00;;;;;;5097532;28;20667;-83
2022/01/12 10:07:25;;;;;;;11.45;3.92;;;19.40;52.10;;;;;;5081779;28;20209;-83
2022/01/12 10:09:51;;;;;;;6.90;4.10;;;19.40;52.60;;;;;;5097407;28;20164;-83
2022/01/12 10:12:18;;;;;;;10.60;4.55;;;19.30;52.50;;;;;;5080046;28;20201;-83
2022/01/12 10:14:47;;;;;;;7.95;4.10;;;19.40;52.60;;;;;;5080207;28;20502;-83
2022/01/12 10:17:13;;;;;;;6.47;4.35;;;19.40;51.90;;;;;;5080168;28;20610;-82
2022/01/12 10:19:39;;;;;;;8.38;4.35;;;19.40;52.10;;;;;;5079575;28;20156;-83
2022/01/12 10:22:08;;;;;;;6.53;4.35;;;19.40;51.90;;;;;;5079743;28;20179;-83
2022/01/12 10:24:42;;;;;;;8.10;4.35;;;19.30;51.70;;;;;;5079286;28;20308;-82
2022/01/12 10:27:16;;;;;;;9.52;4.60;;;19.40;52.20;;;;;;5097517;28;20494;-83
2022/01/12 10:29:42;;;;;;;8.23;4.65;;;19.40;51.90;;;;;;5114063;28;20277;-82
2022/01/12 10:32:09;;;;;;;7.90;4.28;;;19.40;52.10;;;;;;5079777;28;20233;-82
2022/01/12 10:34:40;;;;;;;9.05;4.30;;;19.40;51.70;;;;;;5079968;28;20156;-82
2022/01/12 10:37:08;;;;;;;6.80;4.25;;;19.40;51.80;;;;;;5080063;28;20164;-82
2022/01/12 10:39:37;;;;;;;9.15;4.10;;;19.40;52.10;;;;;;5080635;28;20159;-82
2022/01/12 10:42:06;;;;;;;7.63;4.00;;;19.40;52.40;;;;;;5080786;28;20160;-83
2022/01/12 10:44:33;;;;;;;9.00;4.88;;;19.40;52.30;;;;;;5080501;28;20187;-83
2022/01/12 10:47:06;;;;;;;6.90;4.15;;;19.30;52.50;;;;;;5080205;28;20187;-83
2022/01/12 10:49:33;;;;;;;8.95;4.30;;;19.30;52.80;;;;;;5079020;28;20187;-83
2022/01/12 10:51:59;;;;;;;8.52;4.07;;;19.40;52.90;;;;;;5079200;28;20149;-82
2022/01/12 10:54:24;;;;;;;7.30;3.60;;;19.40;52.50;;;;;;5096155;28;20172;-83
2022/01/12 10:56:50;;;;;;;6.82;3.78;;;19.40;52.30;;;;;;5063676;28;20170;-83
2022/01/12 10:59:20;;;;;;;7.65;4.30;;;19.40;52.60;;;;;;5082688;27;20215;-82
2022/01/12 11:01:46;;;;;;;7.88;4.35;;;19.40;52.50;;;;;;5133913;27;20159;-82
2022/01/12 11:04:11;;;;;;;8.52;4.15;;;19.40;52.50;;;;;;5133567;27;20199;-83
2022/01/12 11:06:37;;;;;;;5.72;3.97;;;19.40;52.50;;;;;;5133443;27;20158;-83
2022/01/12 11:09:04;;;;;;;6.25;4.28;;;19.30;52.10;;;;;;5134313;27;20194;-82
2022/01/12 11:11:30;;;;;;;7.78;4.55;;;19.30;52.50;;;;;;5133738;27;20155;-82
2022/01/12 11:13:55;;;;;;;8.02;4.20;;;19.40;52.50;;;;;;5116303;27;20166;-83
2022/01/12 11:16:22;;;;;;;7.03;4.03;;;19.30;52.50;;;;;;5133657;27;20237;-82
2022/01/12 11:18:48;;;;;;;4.85;3.97;;;19.30;52.20;;;;;;5133317;27;20254;-84
2022/01/12 11:21:41;;;;;;;8.10;3.97;;;19.30;52.20;;;;;;5135981;27;20155;-82
2022/01/12 11:24:15;;;;;;;6.85;4.32;;;19.30;52.60;;;;;;5125564;27;20223;-83
2022/01/12 11:26:49;;;;;;;5.50;4.10;;;19.30;52.70;;;;;;5081929;28;20171;-83
2022/01/12 11:29:27;;;;;;;5.45;4.13;;;19.30;52.20;;;;;;5098468;28;20204;-83
2022/01/12 11:32:05;;;;;;;7.35;4.22;;;19.30;52.70;;;;;;5113836;28;20148;-82
2022/01/12 11:34:31;;;;;;;9.35;3.95;;;19.30;52.50;;;;;;5095534;28;20164;-83
2022/01/12 11:36:56;;;;;;;6.72;4.18;;;19.30;52.30;;;;;;5095688;28;20278;-82
2022/01/12 11:39:23;;;;;;;7.47;3.92;;;19.30;52.40;;;;;;5114051;28;20626;-82
2022/01/12 11:41:48;;;;;;;6.28;4.10;;;19.30;52.30;;;;;;5113740;28;20163;-83
2022/01/12 11:44:16;;;;;;;5.43;3.83;;;19.30;52.30;;;;;;5112164;28;20192;-83
2022/01/12 11:46:46;;;;;;;6.28;3.90;;;19.30;52.20;;;;;;5129313;28;20239;-83
2022/01/12 11:49:22;;;;;;;6.93;4.13;;;19.30;52.30;;;;;;5113513;28;20216;-83
2022/01/12 11:51:48;;;;;;;6.97;4.10;;;19.30;52.20;;;;;;5092825;28;20159;-82
2022/01/12 11:54:15;;;;;;;5.80;3.70;;;19.30;52.30;;;;;;5111358;28;20486;-83
2022/01/12 11:56:59;;;;;;;7.57;4.15;;;19.30;52.20;;;;;;5111593;28;20615;-83
2022/01/12 11:59:27;;;;;;;5.57;3.72;;;19.40;52.30;;;;;;5095434;28;20588;-82
2022/01/12 12:02:04;;;;;;;6.32;4.10;;;19.40;52.40;;;;;;5148298;27;20145;-82
2022/01/12 12:04:31;;;;;;;6.75;3.97;;;19.40;52.30;;;;;;5142973;27;20734;-83
2022/01/12 12:07:13;;;;;;;6.75;4.00;;;19.40;52.30;;;;;;5129077;28;20614;-84
2022/01/12 12:09:44;;;;;;;6.13;3.90;;;19.40;52.20;;;;;;5146495;27;20164;-83
2022/01/12 12:12:12;;;;;;;5.78;3.70;;;19.40;52.30;;;;;;5128801;28;20163;-84
2022/01/12 12:14:38;;;;;;;7.05;3.75;;;19.40;52.10;;;;;;5113234;28;20180;-83
2022/01/12 12:17:04;;;;;;;4.50;3.63;;;19.50;51.90;;;;;;5130351;28;20175;-83
2022/01/12 12:19:30;;;;;;;6.45;3.67;;;19.40;52.10;;;;;;5145909;27;20693;-83
2022/01/12 12:21:56;;;;;;;5.55;4.00;;;19.40;51.70;;;;;;5112025;28;20207;-83
2022/01/12 12:24:21;;;;;;;6.25;3.92;;;19.40;51.80;;;;;;5129036;28;20219;-83
2022/01/12 12:26:50;;;;;;;5.55;3.38;;;19.50;52.00;;;;;;5113028;28;20160;-82
2022/01/12 12:29:18;;;;;;;5.93;3.90;;;19.40;51.90;;;;;;5128421;28;20610;-83
2022/01/12 12:31:48;;;;;;;5.28;3.80;;;19.40;51.50;;;;;;5146985;27;20630;-83
2022/01/12 12:34:14;;;;;;;5.30;3.75;;;19.40;52.20;;;;;;5128287;28;20513;-82
2022/01/12 12:36:40;;;;;;;5.88;4.00;;;19.40;52.00;;;;;;5112395;28;20168;-83
2022/01/12 12:39:11;;;;;;;4.90;3.42;;;19.40;51.20;;;;;;5129275;28;20695;-83
2022/01/12 12:41:40;;;;;;;5.70;3.80;;;19.40;51.60;;;;;;5147413;27;20220;-83
2022/01/12 12:44:06;;;;;;;4.60;3.70;;;19.40;51.70;;;;;;5132367;27;20769;-82
2022/01/12 12:46:31;;;;;;;5.43;3.50;;;19.50;51.90;;;;;;5149230;27;20642;-81
2022/01/12 12:48:57;;;;;;;6.72;3.97;;;19.40;52.00;;;;;;5148819;27;20153;-82
2022/01/12 12:51:23;;;;;;;5.47;3.95;;;19.50;52.10;;;;;;5132823;27;20187;-82
2022/01/12 12:53:52;;;;;;;6.53;3.80;;;19.40;52.10;;;;;;5150771;27;20168;-82
2022/01/12 12:56:20;;;;;;;6.05;3.95;;;19.50;51.90;;;;;;5132817;27;20221;-83
2022/01/12 12:58:50;;;;;;;6.68;3.95;;;19.40;52.50;;;;;;5132889;27;20167;-83
2022/01/12 13:01:16;;;;;;;3.90;3.25;;;19.40;52.00;;;;;;5116249;28;20310;-82
2022/01/12 13:03:54;;;;;;;5.93;3.65;;;19.40;52.10;;;;;;5138709;27;20188;-88
2022/01/12 13:06:29;;;;;;;7.85;4.07;;;19.40;52.20;;;;;;5129024;28;20176;-86
2022/01/12 13:09:04;;;;;;;6.88;3.70;;;19.40;52.30;;;;;;5129642;28;20179;-89
2022/01/12 13:11:44;;;;;;;4.82;3.58;;;19.40;52.10;;;;;;5124531;28;20645;-86
2022/01/12 13:14:14;;;;;;;6.28;3.50;;;19.40;51.90;;;;;;5072445;28;20321;-88
2022/01/12 13:16:45;;;;;;;6.90;3.45;;;19.40;51.80;;;;;;5090717;28;20197;-88
2022/01/12 13:19:33;;;;;;;4.75;3.65;;;19.40;51.80;;;;;;5086224;28;20579;-88
2022/01/12 13:22:03;;;;;;;5.13;3.97;;;19.40;52.10;;;;;;5072055;28;20191;-91
2022/01/12 13:24:31;;;;;;;6.43;3.90;;;19.40;52.20;;;;;;5084709;28;20212;-87
2022/01/12 13:27:01;;;;;;;7.05;3.90;;;19.40;52.20;;;;;;5104354;28;20176;-88
2022/01/12 13:29:40;;;;;;;3.92;3.30;;;19.30;52.10;;;;;;5072439;28;20174;-90
2022/01/12 13:32:11;;;;;;;6.03;3.58;;;19.40;51.90;;;;;;5086467;28;20200;-89
2022/01/12 13:34:42;;;;;;;5.00;3.55;;;19.40;51.90;;;;;;5085896;28;20184;-90
2022/01/12 13:37:15;;;;;;;7.25;3.42;;;19.40;52.10;;;;;;5087810;28;20704;-89
2022/01/12 13:39:44;;;;;;;5.97;3.35;;;19.40;51.70;;;;;;5102827;28;20172;-86
2022/01/12 13:42:09;;;;;;;5.55;3.50;;;19.40;51.50;;;;;;5091530;28;20176;-84
2022/01/12 13:44:35;;;;;;;5.00;3.58;;;19.40;51.80;;;;;;5113807;28;20203;-84
2022/01/12 13:47:10;;;;;;;7.22;3.50;;;19.40;51.80;;;;;;5098657;28;20172;-83
2022/01/12 13:49:36;;;;;;;5.65;3.65;;;19.40;51.60;;;;;;5099194;28;20187;-83
2022/01/12 13:52:06;;;;;;;7.88;3.35;;;19.50;51.90;;;;;;5080615;28;20160;-82
2022/01/12 13:54:37;;;;;;;5.15;3.50;;;19.40;51.80;;;;;;5082354;28;20164;-83
2022/01/12 13:57:04;;;;;;;5.53;3.28;;;19.40;51.50;;;;;;5099696;28;20212;-83
2022/01/12 13:59:32;;;;;;;4.38;3.42;;;19.50;51.30;;;;;;5080812;28;20216;-82
2022/01/12 14:01:58;;;;;;;5.55;3.80;;;19.40;51.40;;;;;;5081783;28;20172;-83